createdAt,value
2023-03-06T00:01:52.078Z,100.00
2023-03-06T07:02:20.650Z,100.00
2023-03-06T07:05:03.028Z,100.00
2023-03-06T07:07:39.749Z,100.00
2023-03-06T07:10:16.126Z,100.00
2023-03-06T07:12:49.777Z,100.00
2023-03-06T07:15:30.878Z,100.00
2023-03-06T07:18:01.954Z,100.00
2023-03-06T07:20:47.868Z,100.00
2023-03-06T07:23:19.341Z,100.00
2023-03-06T07:25:47.833Z,100.00
2023-03-06T07:28:51.315Z,100.00
2023-03-06T07:31:40.803Z,100.00
2023-03-06T07:34:13.441Z,100.00
2023-03-06T07:36:47.975Z,100.00
2023-03-06T07:39:32.074Z,100.00
2023-03-06T07:42:07.541Z,100.00
2023-03-06T07:44:39.563Z,100.00
2023-03-06T07:47:16.916Z,100.00
2023-03-06T07:49:49.022Z,100.00
2023-03-06T07:52:22.026Z,100.00
2023-03-06T07:55:05.356Z,100.00
2023-03-06T07:58:09.755Z,100.00
2023-03-06T08:00:51.214Z,100.00
2023-03-06T08:03:24.477Z,100.00
2023-03-06T08:06:13.837Z,100.00
2023-03-06T08:09:20.229Z,100.00
2023-03-06T08:12:09.476Z,100.00
2023-03-06T08:14:53.102Z,100.00
2023-03-06T08:17:41.878Z,100.00
2023-03-06T08:20:22.208Z,100.00
2023-03-06T08:23:01.812Z,100.00
2023-03-06T08:25:59.045Z,100.00
2023-03-06T08:29:48.393Z,100.00
2023-03-06T08:32:24.651Z,100.00
2023-03-06T08:35:20.564Z,100.00
2023-03-06T08:38:32.040Z,100.00
2023-03-06T08:42:04.281Z,100.00
2023-03-06T08:45:15.471Z,100.00
2023-03-06T08:48:21.882Z,100.00
2023-03-06T08:51:32.183Z,100.00
2023-03-06T09:05:56.311Z,100.00
2023-03-06T09:08:36.658Z,100.00
2023-03-06T09:11:46.634Z,100.00
2023-03-06T09:14:37.924Z,100.00
2023-03-06T09:17:57.709Z,100.00
2023-03-06T09:20:35.598Z,99.13
2023-03-06T09:24:04.602Z,98.77
2023-03-06T09:27:23.265Z,97.56
2023-03-06T09:30:06.645Z,95.71
2023-03-06T09:33:34.788Z,95.31
2023-03-06T09:36:30.346Z,91.40
2023-03-06T09:39:24.173Z,88.16
2023-03-06T09:42:41.017Z,87.98
2023-03-06T09:46:23.201Z,88.91
2023-03-06T09:49:57.749Z,85.79
2023-03-06T09:53:38.480Z,83.98
2023-03-06T09:56:20.179Z,78.62
2023-03-06T10:12:56.471Z,69.79
2023-03-06T10:15:42.151Z,68.10
2023-03-06T10:18:43.379Z,64.75
2023-03-06T10:22:28.330Z,64.44
2023-03-06T10:26:29.398Z,67.34
2023-03-06T10:30:02.751Z,63.24
2023-03-06T11:07:11.520Z,57.61
2023-03-06T11:14:20.362Z,58.25
2023-03-06T11:17:59.777Z,59.12
2023-03-06T11:21:21.580Z,59.19
2023-03-06T11:24:44.190Z,59.68
2023-03-06T11:27:57.378Z,59.39
2023-03-06T11:54:02.975Z,57.50
2023-03-06T11:57:28.128Z,57.03
2023-03-06T12:00:45.669Z,57.68
2023-03-06T12:03:50.191Z,57.32
2023-03-06T12:07:22.471Z,57.91
2023-03-06T12:10:51.821Z,57.35
2023-03-06T12:14:30.400Z,57.37
2023-03-06T12:18:00.947Z,58.01
2023-03-06T12:21:55.766Z,57.61
2023-03-06T12:24:52.872Z,59.15
2023-03-06T12:28:15.372Z,59.42
2023-03-06T12:31:41.331Z,60.51
2023-03-06T12:35:04.087Z,60.60
2023-03-06T12:38:55.088Z,60.59
2023-03-06T12:41:48.205Z,60.39
2023-03-06T12:45:20.797Z,60.30
2023-03-06T12:49:31.453Z,61.65
2023-03-06T12:53:03.436Z,63.97
2023-03-06T12:55:55.865Z,63.51
2023-03-06T12:58:30.229Z,63.22
2023-03-06T13:01:20.126Z,63.74
2023-03-06T13:04:56.451Z,64.76
2023-03-06T13:08:22.712Z,64.58
2023-03-06T14:04:59.166Z,67.42
2023-03-06T14:08:22.883Z,65.68
2023-03-06T14:11:41.707Z,66.35
2023-03-06T14:14:20.659Z,66.73
2023-03-06T14:17:38.908Z,66.88
2023-03-06T14:20:40.183Z,65.92
2023-03-06T14:24:01.664Z,67.27
2023-03-06T14:26:40.334Z,66.17
2023-03-06T14:29:24.069Z,66.69
2023-03-06T14:32:14.542Z,67.50
2023-03-06T14:34:47.329Z,67.27
2023-03-06T14:37:35.154Z,65.95
2023-03-06T14:40:56.184Z,65.45
2023-03-06T14:43:50.543Z,66.46
2023-03-06T14:46:42.929Z,65.25
2023-03-06T14:49:34.039Z,65.32
2023-03-06T14:52:25.681Z,64.05
2023-03-06T14:55:42.453Z,62.94
2023-03-06T14:59:17.878Z,63.55
2023-03-06T15:01:57.159Z,64.80
2023-03-06T15:05:25.090Z,65.31
2023-03-06T15:09:14.080Z,72.50
2023-03-06T15:13:01.840Z,74.99
2023-03-06T15:16:42.718Z,74.44
2023-03-06T15:19:26.822Z,78.98
2023-03-06T15:22:50.856Z,81.50
2023-03-06T15:26:02.177Z,84.72
2023-03-06T15:29:09.326Z,90.31
2023-03-06T16:12:39.572Z,100.00
2023-03-06T16:15:22.667Z,100.00
2023-03-06T16:18:35.112Z,100.00
2023-03-06T16:21:39.039Z,100.00
2023-03-06T16:24:38.405Z,100.00
2023-03-06T16:28:32.438Z,100.00
2023-03-06T16:32:04.796Z,100.00
2023-03-06T16:35:30.822Z,100.00
2023-03-06T16:38:04.918Z,100.00
2023-03-06T16:41:10.229Z,100.00
2023-03-06T16:44:15.791Z,100.00
2023-03-06T16:47:07.529Z,100.00
2023-03-06T16:50:22.340Z,100.00
2023-03-06T16:53:44.289Z,100.00
2023-03-06T16:57:11.160Z,100.00
2023-03-06T17:00:43.136Z,100.00
2023-03-06T17:04:21.065Z,100.00
2023-03-06T17:06:53.341Z,100.00
2023-03-06T17:09:57.652Z,100.00
2023-03-06T17:13:13.204Z,100.00
2023-03-06T17:16:51.681Z,100.00
2023-03-06T17:20:41.948Z,100.00
2023-03-06T17:23:52.692Z,100.00
2023-03-06T17:27:41.695Z,100.00
2023-03-06T17:30:51.125Z,100.00
2023-03-06T17:37:59.569Z,100.00
2023-03-06T18:19:48.515Z,100.00
2023-03-06T18:22:30.418Z,100.00
2023-03-06T18:25:52.783Z,100.00
2023-03-06T18:29:04.632Z,100.00
2023-03-06T18:31:50.055Z,100.00
2023-03-06T18:34:55.104Z,100.00
2023-03-06T18:37:26.013Z,100.00
2023-03-06T18:40:17.148Z,100.00
2023-03-06T18:42:48.109Z,100.00
2023-03-06T18:45:59.458Z,100.00
2023-03-06T18:49:24.718Z,100.00
2023-03-06T18:52:57.324Z,100.00
2023-03-06T18:56:29.789Z,100.00
2023-03-06T18:59:51.380Z,100.00
2023-03-06T19:03:40.641Z,100.00
2023-03-06T19:07:28.836Z,100.00
2023-03-06T19:11:02.599Z,100.00
2023-03-06T19:45:54.072Z,100.00
2023-03-06T19:48:43.700Z,100.00
2023-03-06T19:52:06.728Z,100.00
2023-03-06T19:55:13.763Z,100.00
2023-03-06T19:58:54.798Z,100.00
2023-03-06T20:02:43.767Z,100.00
2023-03-06T20:06:13.018Z,100.00
2023-03-06T20:09:47.850Z,100.00
2023-03-06T20:13:21.365Z,100.00
2023-03-06T20:17:09.693Z,100.00
2023-03-06T20:20:59.496Z,100.00
2023-03-06T20:24:17.971Z,100.00
2023-03-06T20:39:14.695Z,98.22
2023-03-06T20:42:44.997Z,98.25
2023-03-06T20:45:23.355Z,98.80
2023-03-06T20:48:15.440Z,98.72
2023-03-06T20:51:39.328Z,98.24
2023-03-06T20:54:30.717Z,98.60
2023-03-06T20:57:53.618Z,98.28
2023-03-06T21:00:49.287Z,97.92
2023-03-06T21:03:52.607Z,97.30
2023-03-06T21:06:47.682Z,97.58
2023-03-06T21:09:58.503Z,97.64
2023-03-06T21:12:41.398Z,97.89
2023-03-06T21:15:30.891Z,98.37
2023-03-06T21:18:22.935Z,98.25
2023-03-06T21:21:26.712Z,98.24
2023-03-06T21:24:48.343Z,98.23
2023-03-06T21:28:20.027Z,98.11
2023-03-06T21:31:19.852Z,97.77
2023-03-06T21:34:48.712Z,97.52
2023-03-06T21:38:13.631Z,97.84
2023-03-06T21:41:02.533Z,97.48
2023-03-06T21:44:47.690Z,97.60
2023-03-06T21:48:19.670Z,97.58
2023-03-06T21:52:11.795Z,97.52
2023-03-06T21:55:33.817Z,97.70
2023-03-06T21:59:44.338Z,98.16
2023-03-06T22:03:02.794Z,98.40
2023-03-06T22:06:10.407Z,98.54
2023-03-06T22:09:57.917Z,98.47
2023-03-06T22:12:47.436Z,98.34
2023-03-06T22:15:56.412Z,98.40
2023-03-06T22:18:33.764Z,98.34
2023-03-06T22:22:12.580Z,98.13
2023-03-06T22:25:36.141Z,98.25
2023-03-06T22:28:46.841Z,98.16
2023-03-06T22:31:30.207Z,97.53
2023-03-06T22:34:23.078Z,97.69
2023-03-06T22:36:58.633Z,97.35
2023-03-06T22:39:30.231Z,97.47
2023-03-06T22:42:18.772Z,97.32
2023-03-06T22:45:18.366Z,96.84
2023-03-06T22:48:36.165Z,96.77
2023-03-06T22:52:23.173Z,96.88
2023-03-06T22:55:33.867Z,96.85
2023-03-06T22:58:43.959Z,96.92
2023-03-06T23:01:22.760Z,96.92
2023-03-06T23:04:17.571Z,96.96
2023-03-06T23:07:07.951Z,97.01
2023-03-06T23:10:18.192Z,96.91
2023-03-06T23:13:25.710Z,97.06
2023-03-06T23:16:33.853Z,97.10
2023-03-06T23:20:10.195Z,97.19
2023-03-06T23:23:15.912Z,97.34
2023-03-06T23:26:24.011Z,97.43
2023-03-06T23:29:12.487Z,97.63
2023-03-06T23:32:39.880Z,97.36
2023-03-06T23:35:09.569Z,97.40
2023-03-06T23:38:31.613Z,97.02
2023-03-06T23:41:43.091Z,97.11
2023-03-06T23:44:56.959Z,96.77
2023-03-06T23:47:51.744Z,96.72
2023-03-06T23:51:29.765Z,96.82
2023-03-06T23:54:32.488Z,96.73
2023-03-06T23:57:22.965Z,96.59
